CheckWX is a tool to help pilots better visualize weather data.  It is not intended as a substitute for an official pre-flight weather briefing.

21:01:17 UTC

KEIK METAR
Erie Municipal Airport
Erie, Colorado, USA
Current

8 mins ago

KEIK 232053Z AUTO 28003KT 10SM CLR 03/M08 A2992 RMK AO2 T00311076
Observed
Feb-23 @ 20:53 UTC
Wind
  • 280° at 3 KTS
Visibility
10 SM
Flight Rules
VFR
Cloud Levels
  • Clear skies
Temperature
C / 37°F
Dewpoint
-8°C / 18°F
Humidity
45%
Altimeter
29.92" Hg
Pressure
1013.22 hPa
Previous

26 mins ago

KEIK 232035Z AUTO 00000KT 10SM CLR 02/M06 A2991 RMK AO2 T00221061
Observed
Feb-23 @ 20:35 UTC
Visibility
10 SM
Flight Rules
VFR
Cloud Levels
  • Clear skies
Temperature
C / 36°F
Dewpoint
-6°C / 21°F
Humidity
56%
Altimeter
29.91" Hg
Pressure
1012.92 hPa
Previous

44 mins ago

KEIK 232017Z AUTO 14004KT 10SM CLR 02/M04 A2991 RMK AO2 T00171040
Observed
Feb-23 @ 20:17 UTC
Wind
  • 140° at 4 KTS
Visibility
10 SM
Flight Rules
VFR
Cloud Levels
  • Clear skies
Temperature
C / 36°F
Dewpoint
-4°C / 25°F
Humidity
65%
Altimeter
29.91" Hg
Pressure
1012.92 hPa